createdAt,value
2017-07-27T00:00:57.614Z,1002.01
2017-07-27T00:01:57.638Z,1002.02
2017-07-27T00:03:57.682Z,1001.99
2017-07-27T00:04:57.707Z,1001.96
2017-07-27T00:05:57.730Z,1001.96
2017-07-27T00:06:57.759Z,1001.94
2017-07-27T00:07:57.779Z,1001.99
2017-07-27T00:08:57.804Z,1001.96
2017-07-27T00:09:57.827Z,1001.97
2017-07-27T00:10:57.853Z,1001.98
2017-07-27T00:11:57.875Z,1001.96
2017-07-27T00:12:57.897Z,1001.99
2017-07-27T00:13:57.923Z,1002.02
2017-07-27T00:14:57.945Z,1001.98
2017-07-27T00:15:57.969Z,1002
2017-07-27T00:16:57.992Z,1002
2017-07-27T00:17:58.018Z,1001.99
2017-07-27T00:19:58.063Z,1001.99
2017-07-27T00:20:58.087Z,1001.96
2017-07-27T00:21:58.113Z,1001.96
2017-07-27T00:22:58.134Z,1001.96
2017-07-27T00:23:58.161Z,1001.96
2017-07-27T00:24:58.179Z,1001.96
2017-07-27T00:25:58.205Z,1001.98
2017-07-27T00:26:58.233Z,1001.97
2017-07-27T00:27:58.253Z,1002
2017-07-27T00:28:58.274Z,1001.99
2017-07-27T00:29:58.301Z,1002.04
2017-07-27T00:30:58.333Z,1002.05
2017-07-27T00:31:58.348Z,1002
2017-07-27T00:32:58.372Z,1002
2017-07-27T00:33:58.397Z,1002.05
2017-07-27T00:35:58.438Z,1002.04
2017-07-27T00:36:58.467Z,1002
2017-07-27T00:37:58.492Z,1002.02
2017-07-27T00:38:58.512Z,1002.03
2017-07-27T00:39:58.539Z,1002.02
2017-07-27T00:40:58.560Z,1002
2017-07-27T00:41:58.590Z,1002.02
2017-07-27T00:42:58.615Z,1002.01
2017-07-27T00:43:58.631Z,1001.99
2017-07-27T00:44:58.659Z,1001.99
2017-07-27T00:45:58.681Z,1001.97
2017-07-27T00:46:58.701Z,1001.96
2017-07-27T00:47:58.731Z,1001.99
2017-07-27T00:48:58.748Z,1001.95
2017-07-27T00:49:58.775Z,1001.99
2017-07-27T00:51:58.826Z,1002.02
2017-07-27T00:52:58.850Z,1002.03
2017-07-27T00:53:58.868Z,1002
2017-07-27T00:54:58.894Z,1002.03
2017-07-27T00:55:58.919Z,1001.97
2017-07-27T00:56:58.942Z,1001.96
2017-07-27T00:57:58.968Z,1001.94
2017-07-27T00:58:58.990Z,1001.95
2017-07-27T00:59:59.013Z,1001.93
2017-07-27T01:00:59.034Z,1001.96
2017-07-27T01:01:59.062Z,1001.94
2017-07-27T01:02:59.084Z,1001.9
2017-07-27T01:03:59.109Z,1001.91
2017-07-27T01:04:59.150Z,1001.89
2017-07-27T01:06:59.180Z,1001.86
2017-07-27T01:07:59.200Z,1001.89
2017-07-27T01:08:59.226Z,1001.89
2017-07-27T01:09:59.252Z,1001.92
2017-07-27T01:10:59.276Z,1001.89
2017-07-27T01:11:59.300Z,1001.89
2017-07-27T01:12:59.325Z,1001.89
2017-07-27T01:13:59.346Z,1001.89
2017-07-27T01:14:59.371Z,1001.93
2017-07-27T01:15:59.392Z,1001.92
2017-07-27T01:16:59.418Z,1001.93
2017-07-27T01:17:59.439Z,1001.89
2017-07-27T01:18:59.464Z,1001.87
2017-07-27T01:19:59.488Z,1001.89
2017-07-27T01:20:59.515Z,1001.91
2017-07-27T01:21:59.539Z,1001.9
2017-07-27T01:22:59.559Z,1001.89
2017-07-27T01:23:59.582Z,1001.92
2017-07-27T01:24:59.607Z,1001.9
2017-07-27T01:25:59.630Z,1001.92
2017-07-27T01:26:59.656Z,1001.89
2017-07-27T01:27:59.680Z,1001.94
2017-07-27T01:28:59.702Z,1001.92
2017-07-27T01:29:59.727Z,1001.91
2017-07-27T01:30:59.749Z,1001.92
2017-07-27T01:31:59.772Z,1001.91
2017-07-27T01:32:59.799Z,1001.86
2017-07-27T01:33:59.821Z,1001.9
2017-07-27T01:34:59.843Z,1001.87
2017-07-27T01:35:59.867Z,1001.89
2017-07-27T01:36:59.890Z,1001.91
2017-07-27T01:38:59.939Z,1001.92
2017-07-27T01:39:59.962Z,1001.92
2017-07-27T01:41:00.085Z,1001.95
2017-07-27T01:42:00.010Z,1001.92
2017-07-27T01:43:00.034Z,1001.87
2017-07-27T01:44:00.060Z,1001.81
2017-07-27T01:45:00.081Z,1001.78
2017-07-27T01:46:00.104Z,1001.78
2017-07-27T01:47:00.125Z,1001.75
2017-07-27T01:48:00.152Z,1001.76
2017-07-27T01:49:00.177Z,1001.75
2017-07-27T01:50:00.200Z,1001.73
2017-07-27T01:51:00.226Z,1001.74
2017-07-27T01:52:00.246Z,1001.71
2017-07-27T01:53:00.270Z,1001.68
2017-07-27T01:55:00.316Z,1001.68
2017-07-27T01:56:00.341Z,1001.72
2017-07-27T01:57:00.362Z,1001.71
2017-07-27T01:58:00.393Z,1001.71
2017-07-27T01:59:00.414Z,1001.71
2017-07-27T02:00:00.436Z,1001.69
2017-07-27T02:01:00.462Z,1001.71
2017-07-27T02:02:00.484Z,1001.74
2017-07-27T02:03:00.508Z,1001.72
2017-07-27T02:04:00.529Z,1001.68
2017-07-27T02:05:00.557Z,1001.7
2017-07-27T02:06:00.578Z,1001.66
2017-07-27T02:07:00.605Z,1001.69
2017-07-27T02:08:00.628Z,1001.66
2017-07-27T02:09:00.651Z,1001.69
2017-07-27T02:11:00.701Z,1001.62
2017-07-27T02:12:00.722Z,1001.64
2017-07-27T02:13:00.747Z,1001.65
2017-07-27T02:14:00.768Z,1001.67
2017-07-27T02:15:00.796Z,1001.65
2017-07-27T02:16:00.818Z,1001.65
2017-07-27T02:17:00.846Z,1001.68
2017-07-27T02:18:00.867Z,1001.69
2017-07-27T02:19:00.887Z,1001.67
2017-07-27T02:20:00.913Z,1001.71
2017-07-27T02:21:00.933Z,1001.7
2017-07-27T02:22:00.961Z,1001.68
2017-07-27T02:23:00.982Z,1001.7
2017-07-27T02:24:01.008Z,1001.73
2017-07-27T02:25:01.030Z,1001.75
2017-07-27T02:27:01.079Z,1001.72
2017-07-27T02:28:01.102Z,1001.7
2017-07-27T02:29:01.123Z,1001.7
2017-07-27T02:30:01.150Z,1001.69
2017-07-27T02:31:01.174Z,1001.7
2017-07-27T02:32:01.201Z,1001.75
2017-07-27T02:33:01.219Z,1001.7
2017-07-27T02:34:01.249Z,1001.69
2017-07-27T02:35:01.269Z,1001.68
2017-07-27T02:36:01.291Z,1001.69
2017-07-27T02:37:01.317Z,1001.73
2017-07-27T02:38:01.341Z,1001.75
2017-07-27T02:39:01.370Z,1001.72
2017-07-27T02:40:01.389Z,1001.74
2017-07-27T02:42:01.438Z,1001.78
2017-07-27T02:43:01.460Z,1001.76
2017-07-27T02:44:01.486Z,1001.77
2017-07-27T02:45:01.508Z,1001.82
2017-07-27T02:46:01.528Z,1001.78
2017-07-27T02:47:01.555Z,1001.77
2017-07-27T02:48:01.580Z,1001.77
2017-07-27T02:49:01.599Z,1001.75
2017-07-27T02:50:01.624Z,1001.79
2017-07-27T02:51:01.649Z,1001.74
2017-07-27T02:52:01.674Z,1001.75
2017-07-27T02:53:01.701Z,1001.77
2017-07-27T02:54:01.723Z,1001.73
2017-07-27T02:55:01.743Z,1001.71
2017-07-27T02:56:01.771Z,1001.75
2017-07-27T02:57:01.792Z,1001.74
2017-07-27T02:58:01.817Z,1001.76
2017-07-27T02:59:01.839Z,1001.76
2017-07-27T03:00:01.863Z,1001.8
2017-07-27T03:01:01.886Z,1001.79
2017-07-27T03:02:01.911Z,1001.77
2017-07-27T03:03:01.937Z,1001.8
2017-07-27T03:04:01.961Z,1001.83
2017-07-27T03:05:01.979Z,1001.81
2017-07-27T03:06:02.005Z,1001.78
2017-07-27T03:07:02.027Z,1001.82
2017-07-27T03:08:02.056Z,1001.8
2017-07-27T03:09:02.077Z,1001.79
2017-07-27T03:10:02.102Z,1001.8
2017-07-27T03:11:02.125Z,1001.79
2017-07-27T03:12:02.148Z,1001.79
2017-07-27T03:14:02.196Z,1001.79
2017-07-27T03:15:02.221Z,1001.77
2017-07-27T03:16:02.240Z,1001.78
2017-07-27T03:17:02.318Z,1001.79
2017-07-27T03:18:02.289Z,1001.8
2017-07-27T03:19:02.320Z,1001.84
2017-07-27T03:20:02.335Z,1001.87
2017-07-27T03:21:02.364Z,1001.84
2017-07-27T03:22:02.387Z,1001.87
2017-07-27T03:23:02.410Z,1001.87
2017-07-27T03:24:02.432Z,1001.87
2017-07-27T03:25:02.455Z,1001.88
2017-07-27T03:26:02.482Z,1001.85
2017-07-27T03:27:02.504Z,1001.88
2017-07-27T03:28:02.531Z,1001.87
2017-07-27T03:30:02.578Z,1001.87
2017-07-27T03:31:02.600Z,1001.88
2017-07-27T03:32:02.626Z,1001.88
2017-07-27T03:33:02.652Z,1001.84
2017-07-27T03:34:02.672Z,1001.87
2017-07-27T03:35:02.694Z,1001.88
2017-07-27T03:36:02.720Z,1001.87
2017-07-27T03:37:02.743Z,1001.89
2017-07-27T03:38:02.767Z,1001.88
2017-07-27T03:39:02.792Z,1001.87
2017-07-27T03:40:02.818Z,1001.87
2017-07-27T03:41:02.838Z,1001.84
2017-07-27T03:42:02.858Z,1001.87
2017-07-27T03:43:02.885Z,1001.91
2017-07-27T03:44:02.912Z,1001.88
2017-07-27T03:46:02.956Z,1001.91
2017-07-27T03:47:02.981Z,1001.88
2017-07-27T03:48:03.005Z,1001.94
2017-07-27T03:49:03.024Z,1001.92
2017-07-27T03:50:03.050Z,1001.95
2017-07-27T03:51:03.075Z,1001.99
2017-07-27T03:52:03.102Z,1001.96
2017-07-27T03:53:03.125Z,1001.95
2017-07-27T03:54:03.146Z,1001.94
2017-07-27T03:55:03.171Z,1001.91
2017-07-27T03:56:03.194Z,1001.94
2017-07-27T03:57:03.217Z,1001.99
2017-07-27T03:58:03.240Z,1001.92
2017-07-27T03:59:03.265Z,1001.94
2017-07-27T04:00:03.289Z,1001.95
2017-07-27T04:02:03.336Z,1001.99
2017-07-27T04:03:03.361Z,1001.97
2017-07-27T04:04:03.382Z,1001.97
2017-07-27T04:05:03.410Z,1001.99
2017-07-27T04:06:03.433Z,1001.95
2017-07-27T04:07:03.454Z,1001.96
2017-07-27T04:08:03.479Z,1001.97
2017-07-27T04:09:03.505Z,1001.98
2017-07-27T04:10:03.530Z,1001.95
2017-07-27T04:11:03.547Z,1001.96
2017-07-27T04:12:03.575Z,1002
2017-07-27T04:13:03.599Z,1002.01
2017-07-27T04:14:03.621Z,1002
2017-07-27T04:15:03.649Z,1001.96
2017-07-27T04:17:03.693Z,1002
2017-07-27T04:18:03.719Z,1001.94
2017-07-27T04:19:03.742Z,1002
2017-07-27T04:20:03.768Z,1002
2017-07-27T04:21:03.788Z,1001.96
2017-07-27T04:22:03.815Z,1001.99
2017-07-27T04:23:03.834Z,1001.96
2017-07-27T04:24:03.862Z,1001.96
2017-07-27T04:25:03.885Z,1001.92
2017-07-27T04:26:03.914Z,1001.94
2017-07-27T04:27:03.932Z,1001.91
2017-07-27T04:28:03.958Z,1001.89
2017-07-27T04:29:03.979Z,1001.9
2017-07-27T04:30:04.006Z,1001.88
2017-07-27T04:31:04.027Z,1001.9
2017-07-27T04:32:04.052Z,1001.94
2017-07-27T04:33:04.073Z,1001.94
2017-07-27T04:34:04.093Z,1001.93
2017-07-27T04:35:04.124Z,1001.96
2017-07-27T04:36:04.143Z,1001.97
2017-07-27T04:37:04.172Z,1001.98
2017-07-27T04:38:04.198Z,1001.97
2017-07-27T04:39:04.219Z,1001.99
2017-07-27T04:40:04.240Z,1002.01
2017-07-27T04:41:04.261Z,1001.99
2017-07-27T04:42:04.293Z,1002.01
2017-07-27T04:43:04.312Z,1002.02
2017-07-27T04:44:04.335Z,1002.05
2017-07-27T04:45:04.364Z,1002.03
2017-07-27T04:46:04.385Z,1002.01
2017-07-27T04:47:04.409Z,1002.06
2017-07-27T04:49:04.458Z,1002.07
2017-07-27T04:50:04.479Z,1002.09
2017-07-27T04:51:04.505Z,1002.05
2017-07-27T04:52:04.529Z,1002.07
2017-07-27T04:53:04.555Z,1002.06
2017-07-27T04:54:04.628Z,1002.08
2017-07-27T04:55:04.601Z,1002.06
2017-07-27T04:56:04.623Z,1002.05
2017-07-27T04:57:04.651Z,1002.07
2017-07-27T04:58:04.674Z,1002.09
2017-07-27T04:59:04.696Z,1002.09
2017-07-27T05:00:04.724Z,1002.1
2017-07-27T05:01:04.747Z,1002.12
2017-07-27T05:02:04.770Z,1002.13
2017-07-27T05:03:04.795Z,1002.1
2017-07-27T05:05:04.841Z,1002.13
2017-07-27T05:06:04.869Z,1002.13
2017-07-27T05:07:04.895Z,1002.1
2017-07-27T05:08:04.913Z,1002.12
2017-07-27T05:09:04.943Z,1002.1
2017-07-27T05:10:04.962Z,1002.14
2017-07-27T05:11:04.988Z,1002.11
2017-07-27T05:12:05.015Z,1002.12
2017-07-27T05:13:05.037Z,1002.17
2017-07-27T05:14:05.062Z,1002.18
2017-07-27T05:15:05.085Z,1002.14
2017-07-27T05:16:05.113Z,1002.19
2017-07-27T05:17:05.133Z,1002.22
2017-07-27T05:18:05.159Z,1002.36
2017-07-27T05:19:05.182Z,1002.6
2017-07-27T05:21:05.230Z,1002.49
2017-07-27T05:22:05.262Z,1002.25
2017-07-27T05:23:05.279Z,1002.22
2017-07-27T05:24:05.308Z,1002.29
2017-07-27T05:25:05.335Z,1002.28
2017-07-27T05:26:05.360Z,1002.28
2017-07-27T05:27:05.382Z,1002.28
2017-07-27T05:28:05.414Z,1002.36
2017-07-27T05:29:05.438Z,1002.42
2017-07-27T05:30:05.466Z,1002.54
2017-07-27T05:31:05.491Z,1002.65
2017-07-27T05:32:05.515Z,1002.82
2017-07-27T05:33:05.544Z,1002.81
2017-07-27T05:34:05.571Z,1002.8
2017-07-27T05:35:05.599Z,1002.81
2017-07-27T05:37:05.653Z,1002.67
2017-07-27T05:38:05.685Z,1002.74
2017-07-27T05:39:05.711Z,1002.78
2017-07-27T05:40:05.743Z,1002.67
2017-07-27T05:41:05.769Z,1002.46
2017-07-27T05:42:05.798Z,1002.77
2017-07-27T05:43:05.825Z,1002.76
2017-07-27T05:44:05.861Z,1002.8
2017-07-27T05:45:05.888Z,1002.77
2017-07-27T05:46:05.922Z,1002.8
2017-07-27T05:47:05.957Z,1002.8
2017-07-27T05:48:05.987Z,1002.57
2017-07-27T05:49:06.019Z,1002.36
2017-07-27T05:50:06.055Z,1002.43
2017-07-27T05:52:06.170Z,1002.69
2017-07-27T05:53:06.147Z,1002.44
2017-07-27T05:54:06.182Z,1002.38
2017-07-27T05:55:06.227Z,1002.35
2017-07-27T05:56:06.248Z,1002.38
2017-07-27T05:57:06.289Z,1002.33
2017-07-27T05:58:06.309Z,1002.37
2017-07-27T05:59:06.354Z,1002.43
2017-07-27T06:00:06.377Z,1002.41
2017-07-27T06:01:06.409Z,1002.59
2017-07-27T06:02:06.439Z,1002.77
2017-07-27T06:03:06.476Z,1002.71
2017-07-27T06:04:06.505Z,1002.68
2017-07-27T06:05:06.536Z,1002.73
2017-07-27T06:06:06.568Z,1002.69
2017-07-27T06:07:06.601Z,1002.66
2017-07-27T06:08:06.632Z,1002.8
2017-07-27T06:09:06.667Z,1002.77
2017-07-27T06:10:06.698Z,1002.8
2017-07-27T06:11:06.733Z,1002.91
2017-07-27T06:12:06.767Z,1002.63
2017-07-27T06:13:06.800Z,1002.67
2017-07-27T06:14:06.832Z,1002.98
2017-07-27T06:15:06.867Z,1003
2017-07-27T06:16:06.903Z,1003.07
2017-07-27T06:17:06.936Z,1003.15
2017-07-27T06:18:06.972Z,1003.21
2017-07-27T06:19:07.003Z,1003.05
2017-07-27T06:20:07.040Z,1002.53
2017-07-27T06:21:07.071Z,1002.52
2017-07-27T06:22:07.108Z,1002.47
2017-07-27T06:24:07.177Z,1003.12
2017-07-27T06:25:07.214Z,1003.41
2017-07-27T06:26:07.242Z,1003.35
2017-07-27T06:27:07.283Z,1002.76
2017-07-27T06:28:07.311Z,1002.67
2017-07-27T06:29:07.353Z,1003.17
2017-07-27T06:30:07.386Z,1003.11
2017-07-27T06:31:07.421Z,1002.79
2017-07-27T06:32:07.457Z,1003.23
2017-07-27T06:33:07.487Z,1003.28
2017-07-27T06:34:07.526Z,1003.26
2017-07-27T06:35:07.557Z,1003.06
2017-07-27T06:36:07.593Z,1003.13
2017-07-27T06:37:07.630Z,1003.07
2017-07-27T06:38:07.665Z,1003.04
2017-07-27T06:40:07.732Z,1003.2
2017-07-27T06:41:07.770Z,1002.68
2017-07-27T06:42:07.804Z,1002.98
2017-07-27T06:43:07.843Z,1002.89
2017-07-27T06:44:07.879Z,1002.9
2017-07-27T06:45:07.912Z,1003.03
2017-07-27T06:46:07.948Z,1003.14
2017-07-27T06:47:07.982Z,1003.27
2017-07-27T06:48:08.016Z,1003.42
2017-07-27T06:49:08.053Z,1003.37
2017-07-27T06:50:08.088Z,1003.24
2017-07-27T06:51:08.124Z,1002.99
2017-07-27T06:52:08.157Z,1003.32
2017-07-27T06:53:08.192Z,1003.1
2017-07-27T06:54:08.221Z,1003.46
2017-07-27T06:56:08.293Z,1003.13
2017-07-27T06:57:08.330Z,1003.72
2017-07-27T06:58:08.368Z,1003
2017-07-27T06:59:08.403Z,1002.81
2017-07-27T07:00:08.436Z,1002.71
2017-07-27T07:01:08.471Z,1002.96
2017-07-27T07:02:08.506Z,1002.94
2017-07-27T07:03:08.537Z,1003.59
2017-07-27T07:04:08.576Z,1004.06
2017-07-27T07:05:08.606Z,1003.9
2017-07-27T07:06:08.649Z,1004.05
2017-07-27T07:07:08.679Z,1003.91
2017-07-27T07:08:08.716Z,1003.9
2017-07-27T07:09:08.752Z,1003.52
2017-07-27T07:10:08.783Z,1003.64
2017-07-27T07:12:08.857Z,1004.1
2017-07-27T07:13:08.887Z,1004.33
2017-07-27T07:14:08.924Z,1004.17
2017-07-27T07:15:08.959Z,1003.67
2017-07-27T07:16:08.998Z,1003.76
2017-07-27T07:17:09.030Z,1003.8
2017-07-27T07:18:09.069Z,1003.58
2017-07-27T07:19:09.098Z,1003.56
2017-07-27T07:20:09.138Z,1003.57
2017-07-27T07:21:09.177Z,1003.29
2017-07-27T07:22:09.207Z,1003.37
2017-07-27T07:23:09.246Z,1003.31
2017-07-27T07:24:09.282Z,1003.7
2017-07-27T07:25:09.319Z,1003.68
2017-07-27T07:27:09.388Z,1003.94
2017-07-27T07:28:09.424Z,1003.83
2017-07-27T07:29:09.460Z,1003.47
2017-07-27T07:30:09.495Z,1003.6
2017-07-27T07:31:09.530Z,1003.77
2017-07-27T07:32:09.570Z,1003.91
2017-07-27T07:33:09.599Z,1003.91
2017-07-27T07:34:09.640Z,1003.82
2017-07-27T07:35:09.669Z,1003.76
2017-07-27T07:36:09.709Z,1003.72
2017-07-27T07:37:09.746Z,1003.63
2017-07-27T07:38:09.782Z,1003.63
2017-07-27T07:39:09.816Z,1003.6
2017-07-27T07:40:09.856Z,1003.52
2017-07-27T07:41:09.890Z,1003.51
2017-07-27T07:42:09.928Z,1003.6
2017-07-27T07:43:09.967Z,1003.55
2017-07-27T07:44:10.004Z,1003.56
2017-07-27T07:45:10.042Z,1003.52
2017-07-27T07:46:10.073Z,1003.46
2017-07-27T07:47:10.112Z,1003.46
2017-07-27T07:48:10.149Z,1003.43
2017-07-27T07:49:10.186Z,1003.39
2017-07-27T07:50:10.223Z,1003.38
2017-07-27T07:51:10.261Z,1003.32
2017-07-27T07:52:10.294Z,1003.13
2017-07-27T07:53:10.337Z,1003.08
2017-07-27T07:54:10.421Z,1003.1
2017-07-27T07:55:10.405Z,1003.1
2017-07-27T07:56:10.444Z,1003.11
2017-07-27T07:57:10.480Z,1003.09
2017-07-27T07:59:10.554Z,1003.08
2017-07-27T08:00:10.595Z,1003.11
2017-07-27T08:01:10.633Z,1003.1
2017-07-27T08:02:10.671Z,1003.06
2017-07-27T08:03:10.707Z,1003.02
2017-07-27T08:04:10.743Z,1003.06
2017-07-27T08:05:10.781Z,1003
2017-07-27T08:06:10.822Z,1003.03
2017-07-27T08:07:10.851Z,1003.04
2017-07-27T08:08:10.892Z,1003.03
2017-07-27T08:09:10.930Z,1003
2017-07-27T08:10:10.968Z,1003
2017-07-27T08:11:11.007Z,1003.03
2017-07-27T08:12:11.042Z,1003.04
2017-07-27T08:13:11.083Z,1002.75
2017-07-27T08:15:11.155Z,1003.05
2017-07-27T08:16:11.192Z,1003.15
2017-07-27T08:17:11.232Z,1003.17
2017-07-27T08:18:11.269Z,1003.15
2017-07-27T08:19:11.301Z,1003.04
2017-07-27T08:20:11.339Z,1003.1
2017-07-27T08:21:11.379Z,1003.11
2017-07-27T08:22:11.416Z,1003.08
2017-07-27T08:23:11.450Z,1003.09
2017-07-27T08:24:11.493Z,1003.07
2017-07-27T08:25:11.526Z,1003.05
2017-07-27T08:26:11.562Z,1003.05
2017-07-27T08:27:11.600Z,1002.98
2017-07-27T08:28:11.639Z,1002.96
2017-07-27T08:29:11.673Z,1002.9
2017-07-27T08:31:11.746Z,1002.79
2017-07-27T08:32:11.783Z,1002.8
2017-07-27T08:33:11.822Z,1002.8
2017-07-27T08:34:11.856Z,1002.81
2017-07-27T08:35:11.896Z,1002.9
2017-07-27T08:36:11.933Z,1003
2017-07-27T08:37:11.973Z,1003.08
2017-07-27T08:38:12.003Z,1003.08
2017-07-27T08:39:12.043Z,1003.09
2017-07-27T08:40:12.082Z,1003.02
2017-07-27T08:41:12.115Z,1003.02
2017-07-27T08:42:12.154Z,1002.95
2017-07-27T08:43:12.193Z,1002.94
2017-07-27T08:44:12.228Z,1002.94
2017-07-27T08:45:12.264Z,1002.92
2017-07-27T08:47:12.337Z,1002.87
2017-07-27T08:48:12.375Z,1002.86
2017-07-27T08:49:12.414Z,1002.88
2017-07-27T08:50:12.452Z,1002.82
2017-07-27T08:51:12.486Z,1002.75
2017-07-27T08:52:12.522Z,1002.76
2017-07-27T08:53:12.561Z,1002.74
2017-07-27T08:54:12.595Z,1002.77
2017-07-27T08:55:12.633Z,1002.7
2017-07-27T08:56:12.670Z,1002.62
2017-07-27T08:57:12.705Z,1002.56
2017-07-27T08:58:12.742Z,1002.55
2017-07-27T08:59:12.778Z,1002.55
2017-07-27T09:00:12.815Z,1002.6
2017-07-27T09:02:12.887Z,1002.6
2017-07-27T09:03:12.926Z,1002.56
2017-07-27T09:04:12.961Z,1002.59
2017-07-27T09:05:12.998Z,1002.52
2017-07-27T09:06:13.035Z,1002.47
2017-07-27T09:07:13.067Z,1002.57
2017-07-27T09:08:13.105Z,1002.56
2017-07-27T09:09:13.139Z,1002.58
2017-07-27T09:10:13.177Z,1002.41
2017-07-27T09:11:13.213Z,1002.46
2017-07-27T09:12:13.251Z,1002.48
2017-07-27T09:13:13.289Z,1002.57
2017-07-27T09:14:13.323Z,1002.52
2017-07-27T09:15:13.360Z,1002.5
2017-07-27T09:16:13.395Z,1002.59
2017-07-27T09:17:13.432Z,1002.56
2017-07-27T09:18:13.465Z,1002.54
2017-07-27T09:19:13.501Z,1002.42
2017-07-27T09:20:13.536Z,1002.43
2017-07-27T09:21:13.570Z,1002.51
2017-07-27T09:22:13.609Z,1002.57
2017-07-27T09:23:13.638Z,1002.44
2017-07-27T09:24:13.680Z,1002.41
2017-07-27T09:25:13.713Z,1002.45
2017-07-27T09:26:13.750Z,1002.44
2017-07-27T09:27:13.781Z,1002.49
2017-07-27T09:28:13.819Z,1002.43
2017-07-27T09:29:13.854Z,1002.4
2017-07-27T09:30:13.887Z,1002.41
2017-07-27T09:31:13.926Z,1002.38
2017-07-27T09:32:13.956Z,1002.4
2017-07-27T09:34:14.024Z,1002.32
2017-07-27T09:35:14.064Z,1002.37
2017-07-27T09:36:14.095Z,1002.33
2017-07-27T09:37:14.133Z,1002.27
2017-07-27T09:38:14.167Z,1002.27
2017-07-27T09:39:14.204Z,1002.28
2017-07-27T09:40:14.233Z,1002.25
2017-07-27T09:41:14.273Z,1002.26
2017-07-27T09:42:14.303Z,1002.25
2017-07-27T09:43:14.337Z,1002.23
2017-07-27T09:44:14.371Z,1002.21
2017-07-27T09:45:14.408Z,1002.24
2017-07-27T09:46:14.442Z,1002.23
2017-07-27T09:47:14.476Z,1002.24
2017-07-27T09:48:14.509Z,1002.26
2017-07-27T09:50:14.577Z,1002.29
2017-07-27T09:51:14.611Z,1002.22
2017-07-27T09:52:14.646Z,1002.22
2017-07-27T09:53:14.679Z,1002.2
2017-07-27T09:54:14.711Z,1002.21
2017-07-27T09:55:14.745Z,1002.22
2017-07-27T09:56:14.773Z,1002.19
2017-07-27T09:57:14.809Z,1002.27
2017-07-27T09:58:14.841Z,1002.22
2017-07-27T09:59:14.878Z,1002.28
2017-07-27T10:00:14.908Z,1002.24
2017-07-27T10:01:14.944Z,1002.25
2017-07-27T10:02:14.983Z,1002.26
2017-07-27T10:03:15.008Z,1002.26
2017-07-27T10:04:15.041Z,1002.25
2017-07-27T10:06:15.105Z,1002.23
2017-07-27T10:07:15.141Z,1002.29
2017-07-27T10:08:15.175Z,1002.28
2017-07-27T10:09:15.202Z,1002.27
2017-07-27T10:10:15.238Z,1002.27
2017-07-27T10:11:15.275Z,1002.28
2017-07-27T10:12:15.303Z,1002.25
2017-07-27T10:13:15.335Z,1002.2
2017-07-27T10:14:15.367Z,1002.2
2017-07-27T10:15:15.404Z,1002.21
2017-07-27T10:16:15.434Z,1002.28
2017-07-27T10:17:15.671Z,1002.2
2017-07-27T10:18:15.500Z,1002.19
2017-07-27T10:19:15.538Z,1002.19
2017-07-27T10:20:15.569Z,1002.17
2017-07-27T10:22:15.632Z,1002.28
2017-07-27T10:23:15.667Z,1002.24
2017-07-27T10:24:15.700Z,1002.18
2017-07-27T10:25:15.733Z,1002.16
2017-07-27T10:26:15.766Z,1002.16
2017-07-27T10:27:15.800Z,1002.17
2017-07-27T10:28:15.831Z,1002.18
2017-07-27T10:29:15.868Z,1002.13
2017-07-27T10:30:15.897Z,1002.19
2017-07-27T10:31:15.926Z,1002.19
2017-07-27T10:32:15.962Z,1002.23
2017-07-27T10:33:15.999Z,1002.19
2017-07-27T10:34:16.034Z,1002.19
2017-07-27T10:35:16.060Z,1002.15
2017-07-27T10:37:16.131Z,1002.16
2017-07-27T10:38:16.164Z,1002.17
2017-07-27T10:39:16.191Z,1002.16
2017-07-27T10:40:16.227Z,1002.23
2017-07-27T10:41:16.262Z,1002.23
2017-07-27T10:42:16.293Z,1002.16
2017-07-27T10:43:16.328Z,1002.17
2017-07-27T10:44:16.359Z,1002.14
2017-07-27T10:45:16.387Z,1002.18
2017-07-27T10:46:16.424Z,1002.17
2017-07-27T10:47:16.454Z,1002.19
2017-07-27T10:48:16.485Z,1002.13
2017-07-27T10:49:16.524Z,1002.09
2017-07-27T10:50:16.553Z,1002.08
2017-07-27T10:51:16.585Z,1002.07
2017-07-27T10:52:16.622Z,1002.05
2017-07-27T10:53:16.647Z,1002.03
2017-07-27T10:54:16.682Z,1002.05
2017-07-27T10:55:16.713Z,1002.07
2017-07-27T10:56:16.751Z,1002.13
2017-07-27T10:57:16.779Z,1002.09
2017-07-27T10:58:16.812Z,1002.07
2017-07-27T10:59:16.847Z,1002.08
2017-07-27T11:00:16.878Z,1002.05
2017-07-27T11:01:16.910Z,1002.06
2017-07-27T11:02:16.943Z,1002.05
2017-07-27T11:03:16.977Z,1002.04
2017-07-27T11:04:17.007Z,1002.04
2017-07-27T11:05:17.040Z,1002.03
2017-07-27T11:06:17.070Z,1002.07
2017-07-27T11:07:17.102Z,1002.03
2017-07-27T11:09:17.169Z,1002.09
2017-07-27T11:10:17.197Z,1002.07
2017-07-27T11:11:17.232Z,1002.09
2017-07-27T11:12:17.263Z,1002.05
2017-07-27T11:13:17.295Z,1002.06
2017-07-27T11:14:17.322Z,1002.04
2017-07-27T11:15:17.360Z,1002.06
2017-07-27T11:16:17.396Z,1002.1
2017-07-27T11:17:17.421Z,1002.04
2017-07-27T11:18:17.450Z,1002.03
2017-07-27T11:19:17.480Z,1002.02
2017-07-27T11:20:17.515Z,1002.07
2017-07-27T11:21:17.545Z,1002.07
2017-07-27T11:22:17.578Z,1002.07
2017-07-27T11:23:17.606Z,1002.07
2017-07-27T11:25:17.670Z,1002.06
2017-07-27T11:26:17.703Z,1002.02
2017-07-27T11:27:17.735Z,1002.04
2017-07-27T11:28:17.765Z,1001.92
2017-07-27T11:29:17.795Z,1001.96
2017-07-27T11:30:17.827Z,1002.01
2017-07-27T11:31:17.855Z,1001.98
2017-07-27T11:32:17.890Z,1001.98
2017-07-27T11:33:17.919Z,1001.97
2017-07-27T11:34:17.948Z,1002.02
2017-07-27T11:35:17.979Z,1001.98
2017-07-27T11:36:18.010Z,1002.01
2017-07-27T11:37:18.041Z,1002
2017-07-27T11:38:18.068Z,1002.05
2017-07-27T11:39:18.102Z,1002.13
2017-07-27T11:41:18.161Z,1002.12
2017-07-27T11:42:18.191Z,1002.09
2017-07-27T11:43:18.224Z,1002.09
2017-07-27T11:44:18.245Z,1002.06
2017-07-27T11:45:18.282Z,1002.1
2017-07-27T11:46:18.312Z,1002.15
2017-07-27T11:47:18.344Z,1002.17
2017-07-27T11:48:18.375Z,1002.17
2017-07-27T11:49:18.402Z,1002.15
2017-07-27T11:50:18.431Z,1002.17
2017-07-27T11:51:18.463Z,1002.17
2017-07-27T11:52:18.490Z,1002.07
2017-07-27T11:53:18.519Z,1002.1
2017-07-27T11:54:18.553Z,1002.14
2017-07-27T11:55:18.576Z,1002.19
2017-07-27T11:57:18.638Z,1002.21
2017-07-27T11:58:18.667Z,1002.17
2017-07-27T11:59:18.698Z,1002.2
2017-07-27T12:00:18.727Z,1002.16
2017-07-27T12:01:18.754Z,1002.18
2017-07-27T12:02:18.783Z,1002.18
2017-07-27T12:03:18.817Z,1002.23
2017-07-27T12:04:18.843Z,1002.23
2017-07-27T12:05:18.875Z,1002.27
2017-07-27T12:06:18.899Z,1002.22
2017-07-27T12:07:18.928Z,1002.27
2017-07-27T12:08:18.959Z,1002.25
2017-07-27T12:09:18.987Z,1002.25
2017-07-27T12:10:19.017Z,1002.25
2017-07-27T12:12:19.077Z,1002.29
2017-07-27T12:13:19.109Z,1002.22
2017-07-27T12:14:19.139Z,1002.27
2017-07-27T12:15:19.164Z,1002.2
2017-07-27T12:16:19.189Z,1002.23
2017-07-27T12:17:19.219Z,1002.22
2017-07-27T12:18:19.254Z,1002.19
2017-07-27T12:19:19.281Z,1002.3
2017-07-27T12:20:19.311Z,1002.26
2017-07-27T12:21:19.339Z,1002.27
2017-07-27T12:22:19.383Z,1002.25
2017-07-27T12:23:19.396Z,1002.27
2017-07-27T12:24:19.424Z,1002.27
2017-07-27T12:25:19.453Z,1002.25
2017-07-27T12:26:19.481Z,1002.31
2017-07-27T12:27:19.511Z,1002.26
2017-07-27T12:28:19.537Z,1002.2
2017-07-27T12:29:19.566Z,1002.22
2017-07-27T12:30:19.593Z,1002.23
2017-07-27T12:31:19.625Z,1002.2
2017-07-27T12:32:19.649Z,1002.25
2017-07-27T12:33:19.684Z,1002.27
2017-07-27T12:34:19.710Z,1002.24
2017-07-27T12:35:19.740Z,1002.22
2017-07-27T12:36:19.764Z,1002.23
2017-07-27T12:37:19.798Z,1002.23
2017-07-27T12:38:19.826Z,1002.25
2017-07-27T12:39:19.853Z,1002.22
2017-07-27T12:40:19.879Z,1002.19
2017-07-27T12:41:19.909Z,1002.26
2017-07-27T12:42:19.935Z,1002.27
2017-07-27T12:44:19.999Z,1002.21
2017-07-27T12:45:20.024Z,1002.25
2017-07-27T12:46:20.048Z,1002.24
2017-07-27T12:47:20.077Z,1002.28
2017-07-27T12:48:20.109Z,1002.3
2017-07-27T12:49:20.132Z,1002.23
2017-07-27T12:50:20.165Z,1002.25
2017-07-27T12:51:20.189Z,1002.29